sensor_id;sensor_type;location;lat;lon;timestamp;pressure;altitude;pressure_sealevel;temperature;humidity
20015;BME280;61787;42.022;23.078;2023-06-10T00:00:47;96266.50;;;21.25;93.17
20015;BME280;61787;42.022;23.078;2023-06-10T00:01:49;96264.84;;;21.31;92.69
20015;BME280;61787;42.022;23.078;2023-06-10T00:02:50;96261.00;;;21.29;92.24
20015;BME280;61787;42.022;23.078;2023-06-10T00:03:52;96266.88;;;21.27;92.33
20015;BME280;61787;42.022;23.078;2023-06-10T00:04:54;96273.13;;;21.24;91.91
20015;BME280;61787;42.022;23.078;2023-06-10T00:05:56;96267.34;;;21.22;91.82
20015;BME280;61787;42.022;23.078;2023-06-10T00:06:58;96275.59;;;21.18;92.08
20015;BME280;61787;42.022;23.078;2023-06-10T00:08:00;96266.91;;;21.00;92.53
20015;BME280;61787;42.022;23.078;2023-06-10T00:09:08;96272.91;;;20.88;93.54
20015;BME280;61787;42.022;23.078;2023-06-10T00:10:12;96270.84;;;20.96;93.41
20015;BME280;61787;42.022;23.078;2023-06-10T00:11:13;96265.72;;;21.01;93.55
20015;BME280;61787;42.022;23.078;2023-06-10T00:12:15;96269.00;;;21.16;92.74
20015;BME280;61787;42.022;23.078;2023-06-10T00:13:18;96270.47;;;21.20;92.53
20015;BME280;61787;42.022;23.078;2023-06-10T00:14:19;96261.50;;;21.23;92.55
20015;BME280;61787;42.022;23.078;2023-06-10T00:15:21;96269.94;;;21.29;92.21
20015;BME280;61787;42.022;23.078;2023-06-10T00:16:23;96267.56;;;21.31;91.73
20015;BME280;61787;42.022;23.078;2023-06-10T00:17:25;96276.06;;;21.37;91.56
20015;BME280;61787;42.022;23.078;2023-06-10T00:18:26;96262.78;;;21.39;91.25
20015;BME280;61787;42.022;23.078;2023-06-10T00:19:28;96265.78;;;21.44;91.13
20015;BME280;61787;42.022;23.078;2023-06-10T00:20:31;96270.69;;;21.33;90.61
20015;BME280;61787;42.022;23.078;2023-06-10T00:21:34;96264.72;;;21.15;91.48
20015;BME280;61787;42.022;23.078;2023-06-10T00:22:38;96269.38;;;21.18;92.00
20015;BME280;61787;42.022;23.078;2023-06-10T00:23:40;96261.50;;;21.23;91.59
20015;BME280;61787;42.022;23.078;2023-06-10T00:24:42;96271.47;;;21.30;91.49
20015;BME280;61787;42.022;23.078;2023-06-10T00:25:44;96261.28;;;21.34;91.16
20015;BME280;61787;42.022;23.078;2023-06-10T00:26:45;96268.25;;;21.39;90.88
20015;BME280;61787;42.022;23.078;2023-06-10T00:27:47;96267.81;;;21.40;90.52
20015;BME280;61787;42.022;23.078;2023-06-10T00:28:49;96266.31;;;21.36;90.72
20015;BME280;61787;42.022;23.078;2023-06-10T00:29:51;96265.31;;;21.26;90.75
20015;BME280;61787;42.022;23.078;2023-06-10T00:30:53;96270.88;;;21.19;91.14
20015;BME280;61787;42.022;23.078;2023-06-10T00:31:54;96272.59;;;21.09;91.23
20015;BME280;61787;42.022;23.078;2023-06-10T00:32:59;96265.53;;;21.12;91.61
20015;BME280;61787;42.022;23.078;2023-06-10T00:34:01;96263.16;;;21.17;90.90
20015;BME280;61787;42.022;23.078;2023-06-10T00:35:04;96266.94;;;21.23;90.44
20015;BME280;61787;42.022;23.078;2023-06-10T00:36:06;96265.25;;;21.30;89.50
20015;BME280;61787;42.022;23.078;2023-06-10T00:37:07;96264.38;;;21.36;89.28
20015;BME280;61787;42.022;23.078;2023-06-10T00:38:09;96273.25;;;21.40;88.46
20015;BME280;61787;42.022;23.078;2023-06-10T00:39:10;96271.22;;;21.44;88.24
20015;BME280;61787;42.022;23.078;2023-06-10T00:40:12;96267.28;;;21.49;87.91
20015;BME280;61787;42.022;23.078;2023-06-10T00:41:14;96267.22;;;21.52;87.56
20015;BME280;61787;42.022;23.078;2023-06-10T00:42:15;96269.88;;;21.56;87.44
20015;BME280;61787;42.022;23.078;2023-06-10T00:43:17;96272.56;;;21.59;86.94
20015;BME280;61787;42.022;23.078;2023-06-10T00:44:19;96275.28;;;21.59;86.97
20015;BME280;61787;42.022;23.078;2023-06-10T00:45:20;96274.03;;;21.64;87.14
20015;BME280;61787;42.022;23.078;2023-06-10T00:46:23;96271.28;;;21.64;86.81
20015;BME280;61787;42.022;23.078;2023-06-10T00:47:27;96270.84;;;21.65;86.87
20015;BME280;61787;42.022;23.078;2023-06-10T00:48:28;96264.69;;;21.61;86.73
20015;BME280;61787;42.022;23.078;2023-06-10T00:49:31;96269.38;;;21.61;86.70
20015;BME280;61787;42.022;23.078;2023-06-10T00:50:32;96271.78;;;21.59;86.84
20015;BME280;61787;42.022;23.078;2023-06-10T00:51:36;96269.47;;;21.57;86.86
20015;BME280;61787;42.022;23.078;2023-06-10T00:52:37;96267.09;;;21.59;86.94
20015;BME280;61787;42.022;23.078;2023-06-10T00:53:40;96269.34;;;21.64;86.60
20015;BME280;61787;42.022;23.078;2023-06-10T00:54:43;96275.00;;;21.74;86.21
20015;BME280;61787;42.022;23.078;2023-06-10T00:55:45;96265.63;;;21.75;85.96
20015;BME280;61787;42.022;23.078;2023-06-10T00:56:48;96271.44;;;21.77;85.93
20015;BME280;61787;42.022;23.078;2023-06-10T00:57:51;96265.97;;;21.77;85.95
20015;BME280;61787;42.022;23.078;2023-06-10T00:58:53;96272.97;;;21.78;86.04
20015;BME280;61787;42.022;23.078;2023-06-10T00:59:54;96278.81;;;21.80;85.81
20015;BME280;61787;42.022;23.078;2023-06-10T01:00:56;96272.13;;;21.81;85.98
20015;BME280;61787;42.022;23.078;2023-06-10T01:01:59;96268.22;;;21.82;85.98
20015;BME280;61787;42.022;23.078;2023-06-10T01:03:03;96279.84;;;21.86;86.12
20015;BME280;61787;42.022;23.078;2023-06-10T01:04:10;96270.47;;;21.87;85.98
20015;BME280;61787;42.022;23.078;2023-06-10T01:05:13;96266.19;;;21.86;85.93
20015;BME280;61787;42.022;23.078;2023-06-10T01:06:41;96272.50;;;21.83;85.78
20015;BME280;61787;42.022;23.078;2023-06-10T01:10:32;96278.50;;;21.74;85.67
20015;BME280;61787;42.022;23.078;2023-06-10T01:11:44;96277.38;;;21.72;85.51
20015;BME280;61787;42.022;23.078;2023-06-10T01:13:02;96274.44;;;21.62;85.80
20015;BME280;61787;42.022;23.078;2023-06-10T01:14:04;96278.34;;;21.61;85.63
20015;BME280;61787;42.022;23.078;2023-06-10T01:15:08;96278.00;;;21.59;86.23
20015;BME280;61787;42.022;23.078;2023-06-10T01:16:12;96281.06;;;21.61;85.88
20015;BME280;61787;42.022;23.078;2023-06-10T01:17:14;96277.94;;;21.63;85.81
20015;BME280;61787;42.022;23.078;2023-06-10T01:18:18;96283.50;;;21.56;86.80
20015;BME280;61787;42.022;23.078;2023-06-10T01:19:21;96284.66;;;21.58;86.89
20015;BME280;61787;42.022;23.078;2023-06-10T01:20:26;96283.09;;;21.57;87.10
20015;BME280;61787;42.022;23.078;2023-06-10T01:21:31;96277.63;;;21.57;87.47
20015;BME280;61787;42.022;23.078;2023-06-10T01:22:35;96279.59;;;21.57;87.63
20015;BME280;61787;42.022;23.078;2023-06-10T01:23:38;96274.91;;;21.57;87.70
20015;BME280;61787;42.022;23.078;2023-06-10T01:24:40;96275.69;;;21.58;87.68
20015;BME280;61787;42.022;23.078;2023-06-10T01:25:47;96271.00;;;21.58;87.64
20015;BME280;61787;42.022;23.078;2023-06-10T01:26:52;96269.81;;;21.59;87.44
20015;BME280;61787;42.022;23.078;2023-06-10T01:28:14;96271.03;;;21.55;87.68
20015;BME280;61787;42.022;23.078;2023-06-10T01:29:19;96275.31;;;21.56;87.81
20015;BME280;61787;42.022;23.078;2023-06-10T01:30:27;96274.22;;;21.53;87.41
20015;BME280;61787;42.022;23.078;2023-06-10T01:32:06;96279.78;;;21.46;87.56
20015;BME280;61787;42.022;23.078;2023-06-10T01:33:11;96276.13;;;21.33;87.76
20015;BME280;61787;42.022;23.078;2023-06-10T01:34:17;96280.09;;;21.29;87.94
20015;BME280;61787;42.022;23.078;2023-06-10T01:35:21;96274.75;;;21.21;88.58
20015;BME280;61787;42.022;23.078;2023-06-10T01:36:26;96276.56;;;21.05;88.48
20015;BME280;61787;42.022;23.078;2023-06-10T01:37:29;96272.16;;;20.88;89.50
20015;BME280;61787;42.022;23.078;2023-06-10T01:38:36;96275.38;;;20.79;89.96
20015;BME280;61787;42.022;23.078;2023-06-10T01:39:42;96276.38;;;20.65;91.30
20015;BME280;61787;42.022;23.078;2023-06-10T01:40:44;96276.59;;;20.51;92.32
20015;BME280;61787;42.022;23.078;2023-06-10T01:41:48;96277.53;;;20.37;93.36
20015;BME280;61787;42.022;23.078;2023-06-10T01:42:50;96281.13;;;20.31;93.68
20015;BME280;61787;42.022;23.078;2023-06-10T01:43:54;96282.66;;;20.32;94.48
20015;BME280;61787;42.022;23.078;2023-06-10T01:44:55;96280.72;;;20.32;94.50
20015;BME280;61787;42.022;23.078;2023-06-10T01:45:57;96283.09;;;20.27;95.01
20015;BME280;61787;42.022;23.078;2023-06-10T01:46:59;96287.03;;;20.22;94.68
20015;BME280;61787;42.022;23.078;2023-06-10T01:48:01;96284.75;;;20.21;94.19
20015;BME280;61787;42.022;23.078;2023-06-10T01:49:02;96282.94;;;20.07;94.36
20015;BME280;61787;42.022;23.078;2023-06-10T01:50:05;96288.22;;;19.87;95.59
20015;BME280;61787;42.022;23.078;2023-06-10T01:51:06;96288.75;;;19.75;96.18
20015;BME280;61787;42.022;23.078;2023-06-10T01:52:08;96288.09;;;19.64;97.65
20015;BME280;61787;42.022;23.078;2023-06-10T01:53:10;96281.56;;;19.58;97.91
20015;BME280;61787;42.022;23.078;2023-06-10T01:54:11;96283.91;;;19.56;97.82
20015;BME280;61787;42.022;23.078;2023-06-10T01:55:13;96283.94;;;19.52;97.80
20015;BME280;61787;42.022;23.078;2023-06-10T01:56:15;96284.78;;;19.46;98.48
20015;BME280;61787;42.022;23.078;2023-06-10T01:57:19;96290.28;;;19.39;99.20
20015;BME280;61787;42.022;23.078;2023-06-10T01:58:20;96285.63;;;19.36;99.02
20015;BME280;61787;42.022;23.078;2023-06-10T01:59:22;96286.78;;;19.35;99.20
20015;BME280;61787;42.022;23.078;2023-06-10T02:00:24;96289.50;;;19.38;99.27
20015;BME280;61787;42.022;23.078;2023-06-10T02:01:26;96290.31;;;19.32;99.15
20015;BME280;61787;42.022;23.078;2023-06-10T02:02:28;96295.41;;;19.26;99.85
20015;BME280;61787;42.022;23.078;2023-06-10T02:03:29;96295.03;;;19.28;99.89
20015;BME280;61787;42.022;23.078;2023-06-10T02:04:31;96291.13;;;19.29;99.93
20015;BME280;61787;42.022;23.078;2023-06-10T02:05:33;96291.88;;;19.33;99.42
20015;BME280;61787;42.022;23.078;2023-06-10T02:06:34;96292.97;;;19.39;99.58
20015;BME280;61787;42.022;23.078;2023-06-10T02:07:36;96287.88;;;19.44;99.08
20015;BME280;61787;42.022;23.078;2023-06-10T02:08:39;96297.94;;;19.51;98.58
20015;BME280;61787;42.022;23.078;2023-06-10T02:09:41;96290.50;;;19.55;98.32
20015;BME280;61787;42.022;23.078;2023-06-10T02:10:42;96299.47;;;19.52;98.17
20015;BME280;61787;42.022;23.078;2023-06-10T02:11:44;96299.53;;;19.45;98.31
20015;BME280;61787;42.022;23.078;2023-06-10T02:12:46;96303.44;;;19.44;98.58
20015;BME280;61787;42.022;23.078;2023-06-10T02:13:47;96297.59;;;19.49;98.71
20015;BME280;61787;42.022;23.078;2023-06-10T02:14:49;96297.88;;;19.58;98.25
20015;BME280;61787;42.022;23.078;2023-06-10T02:15:51;96294.72;;;19.63;97.54
20015;BME280;61787;42.022;23.078;2023-06-10T02:16:55;96296.22;;;19.68;97.17
20015;BME280;61787;42.022;23.078;2023-06-10T02:17:59;96300.44;;;19.72;97.19
20015;BME280;61787;42.022;23.078;2023-06-10T02:19:02;96305.50;;;19.74;96.70
20015;BME280;61787;42.022;23.078;2023-06-10T02:20:07;96299.63;;;19.75;96.30
20015;BME280;61787;42.022;23.078;2023-06-10T02:21:12;96301.91;;;19.80;96.29
20015;BME280;61787;42.022;23.078;2023-06-10T02:22:13;96308.09;;;19.84;96.30
20015;BME280;61787;42.022;23.078;2023-06-10T02:23:15;96308.00;;;19.91;95.34
20015;BME280;61787;42.022;23.078;2023-06-10T02:24:17;96305.59;;;20.00;94.73
20015;BME280;61787;42.022;23.078;2023-06-10T02:25:19;96304.41;;;20.01;94.27
20015;BME280;61787;42.022;23.078;2023-06-10T02:26:20;96307.50;;;20.04;94.40
20015;BME280;61787;42.022;23.078;2023-06-10T02:27:22;96303.53;;;20.08;94.21
20015;BME280;61787;42.022;23.078;2023-06-10T02:28:24;96306.66;;;20.10;93.87
20015;BME280;61787;42.022;23.078;2023-06-10T02:29:26;96309.31;;;20.14;93.86
20015;BME280;61787;42.022;23.078;2023-06-10T02:30:27;96304.50;;;19.94;94.95
20015;BME280;61787;42.022;23.078;2023-06-10T02:31:29;96301.50;;;19.82;96.19
20015;BME280;61787;42.022;23.078;2023-06-10T02:32:31;96303.47;;;19.81;96.42
20015;BME280;61787;42.022;23.078;2023-06-10T02:33:32;96306.19;;;19.81;96.18
20015;BME280;61787;42.022;23.078;2023-06-10T02:34:35;96304.59;;;19.84;96.43
20015;BME280;61787;42.022;23.078;2023-06-10T02:35:38;96307.28;;;19.87;96.14
20015;BME280;61787;42.022;23.078;2023-06-10T02:36:40;96307.66;;;19.89;96.03
20015;BME280;61787;42.022;23.078;2023-06-10T02:37:41;96308.00;;;19.91;95.84
20015;BME280;61787;42.022;23.078;2023-06-10T02:38:43;96310.00;;;19.87;95.88
20015;BME280;61787;42.022;23.078;2023-06-10T02:39:45;96303.09;;;19.79;96.40
20015;BME280;61787;42.022;23.078;2023-06-10T02:40:47;96307.94;;;19.61;97.01
20015;BME280;61787;42.022;23.078;2023-06-10T02:41:48;96313.53;;;19.40;98.20
20015;BME280;61787;42.022;23.078;2023-06-10T02:42:50;96313.91;;;19.42;98.57
20015;BME280;61787;42.022;23.078;2023-06-10T02:43:51;96311.19;;;19.49;98.37
20015;BME280;61787;42.022;23.078;2023-06-10T02:44:53;96312.66;;;19.57;97.83
20015;BME280;61787;42.022;23.078;2023-06-10T02:45:55;96319.56;;;19.65;97.48
20015;BME280;61787;42.022;23.078;2023-06-10T02:46:56;96307.91;;;19.65;97.08
20015;BME280;61787;42.022;23.078;2023-06-10T02:47:58;96317.03;;;19.44;98.29
20015;BME280;61787;42.022;23.078;2023-06-10T02:49:00;96312.81;;;19.36;98.53
20015;BME280;61787;42.022;23.078;2023-06-10T02:50:03;96306.38;;;19.15;99.63
20015;BME280;61787;42.022;23.078;2023-06-10T02:51:05;96306.09;;;18.99;100.00
20015;BME280;61787;42.022;23.078;2023-06-10T02:52:06;96306.53;;;18.94;100.00
20015;BME280;61787;42.022;23.078;2023-06-10T02:53:09;96308.91;;;18.92;100.00
20015;BME280;61787;42.022;23.078;2023-06-10T02:54:11;96310.88;;;18.85;100.00
20015;BME280;61787;42.022;23.078;2023-06-10T02:55:12;96315.25;;;18.68;100.00
20015;BME280;61787;42.022;23.078;2023-06-10T02:56:16;96299.47;;;18.38;100.00
20015;BME280;61787;42.022;23.078;2023-06-10T02:57:18;96312.00;;;18.14;100.00
20015;BME280;61787;42.022;23.078;2023-06-10T02:58:19;96305.84;;;17.96;100.00
20015;BME280;61787;42.022;23.078;2023-06-10T02:59:22;96308.59;;;17.89;100.00
20015;BME280;61787;42.022;23.078;2023-06-10T03:00:24;96314.03;;;17.82;100.00
20015;BME280;61787;42.022;23.078;2023-06-10T03:01:25;96308.63;;;17.78;100.00
20015;BME280;61787;42.022;23.078;2023-06-10T03:02:27;96305.13;;;17.78;100.00
20015;BME280;61787;42.022;23.078;2023-06-10T03:03:30;96305.13;;;17.78;100.00
20015;BME280;61787;42.022;23.078;2023-06-10T03:04:32;96307.47;;;17.76;100.00
20015;BME280;61787;42.022;23.078;2023-06-10T03:05:33;96309.78;;;17.77;100.00
20015;BME280;61787;42.022;23.078;2023-06-10T03:06:35;96306.69;;;17.79;100.00
20015;BME280;61787;42.022;23.078;2023-06-10T03:07:37;96315.19;;;17.88;100.00
20015;BME280;61787;42.022;23.078;2023-06-10T03:08:39;96308.94;;;18.02;100.00
20015;BME280;61787;42.022;23.078;2023-06-10T03:09:41;96317.44;;;18.14;100.00
20015;BME280;61787;42.022;23.078;2023-06-10T03:10:46;96316.19;;;18.29;100.00
20015;BME280;61787;42.022;23.078;2023-06-10T03:11:47;96313.41;;;18.44;100.00
20015;BME280;61787;42.022;23.078;2023-06-10T03:12:49;96315.72;;;18.56;100.00
20015;BME280;61787;42.022;23.078;2023-06-10T03:13:50;96314.13;;;18.62;100.00
20015;BME280;61787;42.022;23.078;2023-06-10T03:14:52;96319.50;;;18.69;100.00
20015;BME280;61787;42.022;23.078;2023-06-10T03:15:53;96317.16;;;18.74;100.00
20015;BME280;61787;42.022;23.078;2023-06-10T03:16:56;96318.25;;;18.84;100.00
20015;BME280;61787;42.022;23.078;2023-06-10T03:17:57;96315.84;;;18.93;100.00
20015;BME280;61787;42.022;23.078;2023-06-10T03:18:59;96316.97;;;18.99;100.00
20015;BME280;61787;42.022;23.078;2023-06-10T03:20:01;96320.03;;;19.05;100.00
20015;BME280;61787;42.022;23.078;2023-06-10T03:21:03;96314.56;;;19.12;100.00
20015;BME280;61787;42.022;23.078;2023-06-10T03:22:12;96319.16;;;19.18;99.67
20015;BME280;61787;42.022;23.078;2023-06-10T03:23:14;96321.44;;;19.24;99.35
20015;BME280;61787;42.022;23.078;2023-06-10T03:24:17;96317.13;;;19.30;98.77
20015;BME280;61787;42.022;23.078;2023-06-10T03:25:18;96327.56;;;19.35;98.46
20015;BME280;61787;42.022;23.078;2023-06-10T03:26:22;96325.22;;;19.37;97.79
20015;BME280;61787;42.022;23.078;2023-06-10T03:27:23;96319.75;;;19.40;97.58
20015;BME280;61787;42.022;23.078;2023-06-10T03:28:25;96325.19;;;19.47;96.90
20015;BME280;61787;42.022;23.078;2023-06-10T03:29:27;96322.78;;;19.53;96.04
20015;BME280;61787;42.022;23.078;2023-06-10T03:30:28;96324.31;;;19.57;95.74
20015;BME280;61787;42.022;23.078;2023-06-10T03:31:30;96322.69;;;19.64;95.35
20015;BME280;61787;42.022;23.078;2023-06-10T03:32:32;96321.09;;;19.70;95.11
20015;BME280;61787;42.022;23.078;2023-06-10T03:33:34;96320.22;;;19.76;94.93
20015;BME280;61787;42.022;23.078;2023-06-10T03:34:35;96325.59;;;19.83;94.58
20015;BME280;61787;42.022;23.078;2023-06-10T03:35:37;96319.34;;;19.86;94.27
20015;BME280;61787;42.022;23.078;2023-06-10T03:36:39;96313.81;;;19.93;94.66
20015;BME280;61787;42.022;23.078;2023-06-10T03:37:44;96324.66;;;19.97;93.99
20015;BME280;61787;42.022;23.078;2023-06-10T03:38:45;96324.66;;;20.00;93.77
20015;BME280;61787;42.022;23.078;2023-06-10T03:39:47;96320.66;;;20.09;93.58
20015;BME280;61787;42.022;23.078;2023-06-10T03:40:49;96315.88;;;20.16;93.58
20015;BME280;61787;42.022;23.078;2023-06-10T03:41:50;96323.22;;;20.23;93.26
20015;BME280;61787;42.022;23.078;2023-06-10T03:42:52;96323.91;;;20.30;92.86
20015;BME280;61787;42.022;23.078;2023-06-10T03:43:54;96321.53;;;20.36;92.26
20015;BME280;61787;42.022;23.078;2023-06-10T03:44:56;96326.53;;;20.41;91.43
20015;BME280;61787;42.022;23.078;2023-06-10T03:45:57;96324.88;;;20.47;91.62
20015;BME280;61787;42.022;23.078;2023-06-10T03:46:59;96327.13;;;20.56;90.88
20015;BME280;61787;42.022;23.078;2023-06-10T03:48:01;96319.25;;;20.61;90.21
20015;BME280;61787;42.022;23.078;2023-06-10T03:49:05;96326.97;;;20.66;89.35
20015;BME280;61787;42.022;23.078;2023-06-10T03:50:07;96321.41;;;20.73;89.33
20015;BME280;61787;42.022;23.078;2023-06-10T03:51:11;96323.78;;;20.71;86.85
20015;BME280;61787;42.022;23.078;2023-06-10T03:52:13;96323.03;;;20.67;87.16
20015;BME280;61787;42.022;23.078;2023-06-10T03:53:15;96314.81;;;20.44;88.10
20015;BME280;61787;42.022;23.078;2023-06-10T03:54:16;96319.53;;;20.40;88.45
20015;BME280;61787;42.022;23.078;2023-06-10T03:55:18;96320.25;;;20.44;87.88
20015;BME280;61787;42.022;23.078;2023-06-10T03:56:23;96321.81;;;20.45;87.98
20015;BME280;61787;42.022;23.078;2023-06-10T03:57:24;96318.22;;;20.52;88.10
20015;BME280;61787;42.022;23.078;2023-06-10T03:58:27;96317.91;;;20.46;87.99
20015;BME280;61787;42.022;23.078;2023-06-10T03:59:28;96315.50;;;20.52;88.04
20015;BME280;61787;42.022;23.078;2023-06-10T04:00:30;96320.84;;;20.59;87.34
20015;BME280;61787;42.022;23.078;2023-06-10T04:01:32;96317.59;;;20.67;86.81
20015;BME280;61787;42.022;23.078;2023-06-10T04:02:34;96318.44;;;20.64;88.02
20015;BME280;61787;42.022;23.078;2023-06-10T04:03:36;96313.66;;;20.72;87.78
20015;BME280;61787;42.022;23.078;2023-06-10T04:04:38;96319.78;;;20.79;87.50
20015;BME280;61787;42.022;23.078;2023-06-10T04:05:40;96311.84;;;20.89;86.77
20015;BME280;61787;42.022;23.078;2023-06-10T04:06:43;96316.38;;;20.99;86.76
20015;BME280;61787;42.022;23.078;2023-06-10T04:07:45;96310.19;;;20.95;85.45
20015;BME280;61787;42.022;23.078;2023-06-10T04:08:47;96316.28;;;20.79;86.21
20015;BME280;61787;42.022;23.078;2023-06-10T04:09:49;96313.19;;;20.77;86.63
20015;BME280;61787;42.022;23.078;2023-06-10T04:10:51;96315.03;;;20.83;86.17
20015;BME280;61787;42.022;23.078;2023-06-10T04:11:53;96307.59;;;20.88;86.15
20015;BME280;61787;42.022;23.078;2023-06-10T04:12:55;96307.84;;;20.97;86.15
20015;BME280;61787;42.022;23.078;2023-06-10T04:13:57;96316.28;;;21.06;85.83
20015;BME280;61787;42.022;23.078;2023-06-10T04:14:58;96313.03;;;21.14;85.04
20015;BME280;61787;42.022;23.078;2023-06-10T04:16:01;96314.47;;;21.22;84.98
20015;BME280;61787;42.022;23.078;2023-06-10T04:17:05;96314.41;;;21.26;84.90
20015;BME280;61787;42.022;23.078;2023-06-10T04:18:10;96318.16;;;21.36;84.43
20015;BME280;61787;42.022;23.078;2023-06-10T04:19:11;96316.38;;;21.49;84.44
20015;BME280;61787;42.022;23.078;2023-06-10T04:20:13;96319.28;;;21.61;83.11
20015;BME280;61787;42.022;23.078;2023-06-10T04:21:15;96321.53;;;21.66;82.72
20015;BME280;61787;42.022;23.078;2023-06-10T04:22:18;96320.56;;;21.77;82.92
20015;BME280;61787;42.022;23.078;2023-06-10T04:23:20;96319.59;;;21.87;81.98
20015;BME280;61787;42.022;23.078;2023-06-10T04:24:21;96321.06;;;21.95;81.72
20015;BME280;61787;42.022;23.078;2023-06-10T04:25:24;96319.34;;;22.01;81.74
20015;BME280;61787;42.022;23.078;2023-06-10T04:26:26;96326.06;;;22.16;80.52
20015;BME280;61787;42.022;23.078;2023-06-10T04:27:29;96314.31;;;22.19;80.27
20015;BME280;61787;42.022;23.078;2023-06-10T04:28:30;96321.66;;;22.22;79.33
20015;BME280;61787;42.022;23.078;2023-06-10T04:29:32;96314.19;;;22.26;78.77
20015;BME280;61787;42.022;23.078;2023-06-10T04:30:34;96319.16;;;22.31;78.41
20015;BME280;61787;42.022;23.078;2023-06-10T04:31:35;96320.16;;;22.21;78.92
20015;BME280;61787;42.022;23.078;2023-06-10T04:32:37;96316.44;;;22.31;78.83
20015;BME280;61787;42.022;23.078;2023-06-10T04:33:38;96318.31;;;22.34;79.20
20015;BME280;61787;42.022;23.078;2023-06-10T04:34:40;96317.81;;;22.39;78.72
20015;BME280;61787;42.022;23.078;2023-06-10T04:35:42;96314.22;;;22.42;77.82
20015;BME280;61787;42.022;23.078;2023-06-10T04:36:44;96318.50;;;22.43;77.95
20015;BME280;61787;42.022;23.078;2023-06-10T04:37:45;96314.22;;;22.42;77.23
20015;BME280;61787;42.022;23.078;2023-06-10T04:38:47;96315.03;;;22.23;77.95
20015;BME280;61787;42.022;23.078;2023-06-10T04:39:48;96325.06;;;22.10;78.42
20015;BME280;61787;42.022;23.078;2023-06-10T04:40:50;96317.34;;;21.82;79.22
20015;BME280;61787;42.022;23.078;2023-06-10T04:41:52;96312.16;;;21.67;80.51
20015;BME280;61787;42.022;23.078;2023-06-10T04:42:54;96316.06;;;21.66;81.54
20015;BME280;61787;42.022;23.078;2023-06-10T04:43:56;96313.81;;;21.85;81.41
20015;BME280;61787;42.022;23.078;2023-06-10T04:44:57;96317.69;;;22.07;80.63
20015;BME280;61787;42.022;23.078;2023-06-10T04:45:59;96308.88;;;22.19;79.18
20015;BME280;61787;42.022;23.078;2023-06-10T04:47:01;96311.97;;;22.21;79.49
20015;BME280;61787;42.022;23.078;2023-06-10T04:48:03;96305.50;;;22.11;78.76
20015;BME280;61787;42.022;23.078;2023-06-10T04:49:05;96310.53;;;22.13;79.30
20015;BME280;61787;42.022;23.078;2023-06-10T04:50:07;96310.34;;;22.24;78.50
20015;BME280;61787;42.022;23.078;2023-06-10T04:51:09;96304.78;;;22.27;78.82
20015;BME280;61787;42.022;23.078;2023-06-10T04:52:11;96304.78;;;22.27;78.28
20015;BME280;61787;42.022;23.078;2023-06-10T04:53:12;96314.53;;;22.28;78.42
20015;BME280;61787;42.022;23.078;2023-06-10T04:54:14;96310.81;;;22.38;78.48
20015;BME280;61787;42.022;23.078;2023-06-10T04:55:17;96308.44;;;22.40;78.79
20015;BME280;61787;42.022;23.078;2023-06-10T04:56:19;96309.00;;;22.51;78.51
20015;BME280;61787;42.022;23.078;2023-06-10T04:57:21;96304.59;;;22.74;77.50
20015;BME280;61787;42.022;23.078;2023-06-10T04:58:23;96305.06;;;22.88;76.90
20015;BME280;61787;42.022;23.078;2023-06-10T04:59:27;96312.03;;;22.73;76.40
20015;BME280;61787;42.022;23.078;2023-06-10T05:00:41;96306.78;;;22.63;77.39
20015;BME280;61787;42.022;23.078;2023-06-10T05:01:47;96312.75;;;22.58;77.02
20015;BME280;61787;42.022;23.078;2023-06-10T05:02:52;96309.97;;;22.41;77.62
20015;BME280;61787;42.022;23.078;2023-06-10T05:03:54;96306.41;;;22.25;78.12
20015;BME280;61787;42.022;23.078;2023-06-10T05:04:56;96301.56;;;22.32;78.03
20015;BME280;61787;42.022;23.078;2023-06-10T05:05:59;96313.03;;;22.43;78.27
20015;BME280;61787;42.022;23.078;2023-06-10T05:07:01;96312.97;;;22.47;78.62
20015;BME280;61787;42.022;23.078;2023-06-10T05:08:02;96314.59;;;22.44;78.85
20015;BME280;61787;42.022;23.078;2023-06-10T05:09:09;96311.72;;;22.51;78.75
20015;BME280;61787;42.022;23.078;2023-06-10T05:10:11;96315.16;;;22.56;78.29
20015;BME280;61787;42.022;23.078;2023-06-10T05:11:15;96311.91;;;22.61;78.73
20015;BME280;61787;42.022;23.078;2023-06-10T05:12:17;96310.94;;;22.71;79.54
20015;BME280;61787;42.022;23.078;2023-06-10T05:13:19;96317.78;;;22.79;78.88
20015;BME280;61787;42.022;23.078;2023-06-10T05:14:20;96311.75;;;22.87;79.13
20015;BME280;61787;42.022;23.078;2023-06-10T05:15:22;96314.06;;;23.05;77.64
20015;BME280;61787;42.022;23.078;2023-06-10T05:16:24;96314.66;;;23.13;77.52
20015;BME280;61787;42.022;23.078;2023-06-10T05:17:26;96310.56;;;23.21;77.21
20015;BME280;61787;42.022;23.078;2023-06-10T05:18:27;96312.69;;;23.29;76.82
20015;BME280;61787;42.022;23.078;2023-06-10T05:19:29;96308.50;;;23.41;76.19
20015;BME280;61787;42.022;23.078;2023-06-10T05:20:31;96305.16;;;23.50;75.48
20015;BME280;61787;42.022;23.078;2023-06-10T05:21:33;96309.97;;;23.62;75.32
20015;BME280;61787;42.022;23.078;2023-06-10T05:22:34;96305.84;;;23.70;74.39
20015;BME280;61787;42.022;23.078;2023-06-10T05:23:36;96306.66;;;23.83;73.96
20015;BME280;61787;42.022;23.078;2023-06-10T05:24:38;96306.28;;;23.97;73.36
20015;BME280;61787;42.022;23.078;2023-06-10T05:25:40;96303.69;;;24.06;72.60
20015;BME280;61787;42.022;23.078;2023-06-10T05:26:43;96306.59;;;24.15;71.58
20015;BME280;61787;42.022;23.078;2023-06-10T05:27:44;96300.59;;;24.20;71.08
20015;BME280;61787;42.022;23.078;2023-06-10T05:28:46;96312.88;;;24.29;70.51
20015;BME280;61787;42.022;23.078;2023-06-10T05:29:48;96303.59;;;24.39;69.60
20015;BME280;61787;42.022;23.078;2023-06-10T05:30:49;96306.91;;;24.46;69.20